Flight Track Log - Related Links

Times and Time Zones

All times are in EDT time to prevent confusion due to time zone crossing. See the UAL33 flight status page for this flight to view local times or setup timezone preferences in your user account.

Time Position Orientation Groundspeed Altitude Reporting Facility
EDT Latitude Longitude Course Direction KTS MPH feet Rate Location/Type
Mon 05:36:27 PM 29.9780 -95.3020 95° East 161 185 700  Level FlightAware ADS-B
Mon 05:36:34 PM 29.9790 -95.2958 79° East 164 189 1,000 2,727 Climbing FlightAware ADS-B
Mon 05:36:38 PM 29.9802 -95.2928 65° Northeast 165 190 1,200 3,000 Climbing FlightAware ADS-B
Mon 05:36:44 PM 29.9829 -95.2886 53° Northeast 171 197 1,500 2,400 Climbing FlightAware ADS-B
Mon 05:36:48 PM 29.9851 -95.2864 41° Northeast 177 204 1,600 2,000 Climbing FlightAware ADS-B
Mon 05:36:53 PM 29.9892 -95.2837 30° Northeast 186 214 1,800 2,182 Climbing FlightAware ADS-B
Mon 05:36:59 PM 29.9944 -95.2817 18° North 199 229 2,000 2,000 Climbing FlightAware ADS-B
Mon 05:37:14 PM 30.0095 -95.2786 10° North 230 265 2,500 1,667 Climbing FlightAware ADS-B
Mon 05:38:11 PM 30.0777 -95.2632 11° North 272 313 4,000 2,217 Climbing FlightAware ADS-B
Mon 05:40:18 PM 30.2373 -95.2211 14° North 299 344 9,300 2,832 Climbing FlightAware ADS-B
Mon 05:40:52 PM 30.2845 -95.2076 14° North 307 353 11,600 3,727 Climbing FlightAware ADS-B
Mon 05:41:24 PM 30.3308 -95.1946 14° North 332 382 13,400 3,048 Climbing FlightAware ADS-B
Mon 05:41:55 PM 30.3791 -95.1810 14° North 361 415 14,800 3,120 Climbing FlightAware ADS-B
Mon 05:42:39 PM 30.4515 -95.1575 18° North 375 432 17,300 2,908 Climbing FlightAware ADS-B
Mon 05:45:11 PM 30.6990 -95.0064 28° Northeast 416 479 24,300 2,736 Climbing FlightAware ADS-B
Mon 05:45:41 PM 30.7500 -94.9747 28° Northeast 416 479 25,600 2,459 Climbing FlightAware ADS-B
Mon 05:46:12 PM 30.8026 -94.9418 28° Northeast 423 487 26,800 2,164 Climbing FlightAware ADS-B
Mon 05:46:42 PM 30.8553 -94.9091 28° Northeast 431 496 27,800 1,912 Climbing FlightAware ADS-B
Mon 05:47:43 PM 30.9641 -94.8412 28° Northeast 444 511 29,700 1,774 Climbing FlightAware ADS-B
Mon 05:49:48 PM 31.1961 -94.6951 29° Northeast 467 537 33,300 1,665 Climbing FlightAware ADS-B
Mon 05:50:18 PM 31.2528 -94.6552 31° Northeast 473 544 34,000 1,345 Climbing FlightAware ADS-B
Mon 05:50:46 PM 31.3052 -94.6182 31° Northeast 478 550 34,600 1,322 Climbing FlightAware ADS-B
Mon 05:51:17 PM 31.3632 -94.5776 31° Northeast 483 556 35,300 1,532 Climbing FlightAware ADS-B
Mon 05:52:20 PM 31.4847 -94.4935 31° Northeast 482 555 37,000 968 Climbing FlightAware ADS-B
Mon 05:54:23 PM 31.7210 -94.3295 31° Northeast 479 551 38,300 902 Climbing FlightAware ADS-B
Mon 05:54:53 PM 31.7782 -94.2895 31° Northeast 471 542 39,300 1,054 Climbing FlightAware ADS-B
Mon 05:55:37 PM 31.8620 -94.2307 31° Northeast 481 554 39,600 554 Climbing FlightAware ADS-B
Mon 05:57:57 PM 32.1310 -94.0410 31° Northeast 491 565 41,000 475 Climbing FlightAware ADS-B
Mon 05:58:34 PM 32.1930 -93.9980 30° Northeast 491 565 41,000  Level FlightAware ADS-B
Mon 05:59:10 PM 32.2761 -93.9389 31° Northeast 485 558 41,000  Level FlightAware ADS-B
Mon 05:59:58 PM 32.3681 -93.8735 31° Northeast 485 558 41,000  Level FlightAware ADS-B
Mon 06:01:23 PM 32.5328 -93.7563 31° Northeast 486 559 41,000  Level FlightAware ADS-B
Mon 06:03:38 PM 32.7932 -93.5699 31° Northeast 489 563 41,000  Level FlightAware ADS-B
Mon 06:06:28 PM 33.1240 -93.3320 31° Northeast 503 579 41,000  Level FlightAware ADS-B
Mon 06:07:11 PM 33.2120 -93.2670 32° Northeast 501 577 41,000  Level FlightAware ADS-B
Mon 06:07:50 PM 33.2780 -93.2200 31° Northeast 501 577 41,000  Level FlightAware ADS-B
Mon 06:08:38 PM 33.3590 -93.1620 31° Northeast 501 577 41,000  Level FlightAware ADS-B
Mon 06:09:14 PM 33.4200 -93.1180 31° Northeast 501 577 41,000  Level FlightAware ADS-B
Mon 06:10:02 PM 33.5010 -93.0590 31° Northeast 501 577 41,000  Level FlightAware ADS-B
Mon 06:10:38 PM 33.5610 -93.0160 31° Northeast 501 577 41,000  Level FlightAware ADS-B
Mon 06:11:33 PM 33.6540 -92.9490 31° Northeast 501 577 41,000  Level FlightAware ADS-B
Mon 06:12:34 PM 33.7570 -92.8740 31° Northeast 501 577 41,000  Level FlightAware ADS-B
Mon 06:13:11 PM 33.8200 -92.8290 31° Northeast 501 577 41,000  Level FlightAware ADS-B
Mon 06:13:59 PM 33.9010 -92.7700 31° Northeast 501 577 41,000  Level FlightAware ADS-B
Mon 06:14:36 PM 33.9630 -92.7250 31° Northeast 501 577 41,000  Level FlightAware ADS-B
Mon 06:15:28 PM 34.0510 -92.6610 31° Northeast 501 577 41,000  Level FlightAware ADS-B
Mon 06:16:36 PM 34.1660 -92.5780 31° Northeast 501 577 41,000  Level FlightAware ADS-B
Mon 06:20:00 PM 34.7090 -92.1660 32° Northeast 495 570 41,000  Level FlightAware ADS-B
Mon 06:20:36 PM 34.7710 -92.1280 27° Northeast 495 570 41,000  Level FlightAware ADS-B
Mon 06:21:36 PM 34.8750 -92.0630 27° Northeast 495 570 41,000  Level FlightAware ADS-B
Mon 06:22:13 PM 34.9390 -92.0230 27° Northeast 495 570 41,000  Level FlightAware ADS-B
Mon 06:23:00 PM 35.0210 -91.9720 27° Northeast 495 570 41,000  Level FlightAware ADS-B
Mon 06:23:26 PM 35.1880 -92.0340 343° North 505 581 41,000  Level FlightAware ADS-B
Mon 06:24:20 PM 35.3100 -91.9990 13° North 506 582 41,000  Level FlightAware ADS-B
Mon 06:24:58 PM 35.3940 -91.9740 14° North 505 581 41,000  Level FlightAware ADS-B
Mon 06:25:48 PM 35.5100 -91.9400 13° North 505 581 41,000  Level FlightAware ADS-B
Mon 06:26:28 PM 35.6010 -91.9140 13° North 504 580 41,000  Level FlightAware ADS-B
Mon 06:27:12 PM 35.7000 -91.8850 13° North 500 575 41,000  Level FlightAware ADS-B
Mon 06:27:50 PM 35.7850 -91.8600 13° North 496 571 41,000  Level FlightAware ADS-B
Mon 06:28:36 PM 35.8890 -91.8290 14° North 496 571 41,000  Level FlightAware ADS-B
Mon 06:29:12 PM 35.9690 -91.8060 13° North 494 568 41,000  Level FlightAware ADS-B
Mon 06:30:00 PM 36.0760 -91.7740 14° North 491 565 41,000  Level FlightAware ADS-B
Mon 06:30:40 PM 36.1650 -91.7480 13° North 491 565 41,000  Level FlightAware ADS-B
Mon 06:31:20 PM 36.2520 -91.7220 14° North 491 565 41,000  Level FlightAware ADS-B
Mon 06:31:56 PM 36.3310 -91.6980 14° North 493 567 41,000  Level FlightAware ADS-B
Mon 06:32:40 PM 36.4260 -91.6700 13° North 492 566 41,000  Level FlightAware ADS-B
Mon 06:33:18 PM 36.5140 -91.6440 13° North 490 564 41,000  Level FlightAware ADS-B
Mon 06:33:57 PM 36.5990 -91.6180 14° North 493 567 41,000  Level FlightAware ADS-B
Mon 06:34:38 PM 36.6920 -91.5910 13° North 498 573 41,000  Level FlightAware ADS-B
Mon 06:35:18 PM 36.7810 -91.5640 14° North 499 574 41,000  Level FlightAware ADS-B
Mon 06:36:02 PM 36.8800 -91.5340 14° North 499 574 41,000  Level FlightAware ADS-B
Mon 06:36:46 PM 36.9780 -91.5040 14° North 501 577 41,000  Level FlightAware ADS-B
Mon 06:37:26 PM 37.0640 -91.4780 14° North 504 580 41,000  Level FlightAware ADS-B
Mon 06:38:11 PM 37.1710 -91.4460 13° North 505 581 41,000  Level FlightAware ADS-B
Mon 06:38:42 PM 37.2410 -91.4240 14° North 502 578 41,000  Level FlightAware ADS-B
Mon 06:39:24 PM 37.3350 -91.3950 14° North 498 573 41,000  Level FlightAware ADS-B
Mon 06:40:08 PM 37.4330 -91.3650 14° North 497 572 41,000  Level FlightAware ADS-B
Mon 06:40:36 PM 37.4950 -91.3460 14° North 498 573 41,000  Level FlightAware ADS-B
Mon 06:41:23 PM 37.5910 -91.3170 13° North 498 573 41,000  Level FlightAware ADS-B
Mon 06:42:18 PM 37.7230 -91.2760 14° North 499 574 41,000  Level FlightAware ADS-B
Mon 06:43:02 PM 37.8230 -91.2450 14° North 499 574 41,000  Level FlightAware ADS-B
Mon 06:43:44 PM 37.9150 -91.2160 14° North 494 568 41,000  Level FlightAware ADS-B
Mon 06:44:25 PM 38.0070 -91.1880 13° North 495 570 41,000  Level FlightAware ADS-B
Mon 06:45:18 PM 38.1080 -91.1580 13° North 495 570 41,000  Level FlightAware ADS-B
Mon 06:46:19 PM 38.2230 -91.1240 13° North 495 570 41,000  Level FlightAware ADS-B
Mon 06:46:55 PM 38.2920 -91.1040 13° North 495 570 41,000  Level FlightAware ADS-B
Mon 06:47:52 PM 38.4660 -91.0440 15° North 496 571 41,000  Level FlightAware ADS-B
Mon 06:48:40 PM 38.5630 -91.0150 13° North 496 571 41,000  Level FlightAware ADS-B
Mon 06:49:16 PM 38.6460 -90.9880 14° North 493 567 41,000  Level FlightAware ADS-B
Mon 06:50:01 PM 38.7490 -90.9420 19° North 494 568 41,000  Level FlightAware ADS-B
Mon 06:50:44 PM 38.8430 -90.8910 23° Northeast 492 566 41,000  Level FlightAware ADS-B
Mon 06:51:26 PM 38.9190 -90.8510 22° Northeast 492 566 41,000  Level FlightAware ADS-B
Mon 06:52:10 PM 39.0200 -90.7940 24° Northeast 496 571 41,000 -395 Level FlightAware ADS-B
Mon 06:52:42 PM 39.0900 -90.7560 23° Northeast 496 571 40,500 -1,200 Descending FlightAware ADS-B
Mon 06:53:25 PM 39.1860 -90.7130 19° North 500 575 39,500 -1,186 Descending FlightAware ADS-B
Mon 06:54:08 PM 39.2840 -90.7150 359° North 500 575 38,800 -1,200 Descending FlightAware ADS-B
Mon 06:54:40 PM 39.3550 -90.7280 352° North 499 574 38,000 -1,516 Descending FlightAware ADS-B
Mon 06:55:39 PM 39.4820 -90.7750 344° North 489 563 36,500 -1,832 Descending FlightAware ADS-B
Mon 06:56:15 PM 39.5610 -90.8190 337° Northwest 498 573 35,100 -1,063 Descending FlightAware ADS-B
Mon 06:56:58 PM 39.6400 -90.8640 336° Northwest 499 574 35,100 -67 Level FlightAware ADS-B
Mon 06:57:45 PM 39.7470 -90.9210 338° Northwest 494 568 35,000 -65 Descending FlightAware ADS-B
Mon 06:58:30 PM 39.8310 -90.9680 337° Northwest 493 567 35,000 -732 Level FlightAware ADS-B
Mon 06:59:07 PM 39.9210 -91.0140 339° North 496 571 34,000 -1,765 Descending FlightAware ADS-B
Mon 06:59:21 PM 39.9560 -91.0210 351° North 493 567 33,500 -845 Descending FlightAware ADS-B
Mon 07:00:18 PM 40.0440 -90.9850 17° North 486 559 33,000 -303 Descending FlightAware ADS-B
Mon 07:01:00 PM 40.1110 -90.9130 39° Northeast 472 543 33,000  Level FlightAware ADS-B
Mon 07:01:39 PM 40.1970 -90.8000 45° Northeast 478 550 33,000  Level FlightAware ADS-B
Mon 07:02:25 PM 40.2720 -90.7080 43° Northeast 479 551 33,000  Level FlightAware ADS-B
Mon 07:03:04 PM 40.3320 -90.6330 44° Northeast 476 548 33,000  Level FlightAware ADS-B
Mon 07:03:42 PM 40.3950 -90.5540 44° Northeast 473 544 33,000 -220 Level FlightAware ADS-B
Mon 07:04:26 PM 40.4660 -90.4660 43° Northeast 470 541 32,700 -424 Descending FlightAware ADS-B
Mon 07:05:07 PM 40.5270 -90.3900 43° Northeast 460 529 32,400 -424 Descending FlightAware ADS-B
Mon 07:05:51 PM 40.5960 -90.3040 43° Northeast 450 518 32,100 -532 Descending FlightAware ADS-B
Mon 07:06:26 PM 40.6450 -90.2420 44° Northeast 446 513 31,700 -585 Descending FlightAware ADS-B
Mon 07:07:13 PM 40.7160 -90.1520 44° Northeast 437 503 31,300 -552 Descending FlightAware ADS-B
Mon 07:07:53 PM 40.7750 -90.0790 43° Northeast 434 499 30,900 -692 Descending FlightAware ADS-B
Mon 07:08:31 PM 40.8290 -90.0100 44° Northeast 432 497 30,400 -1,077 Descending FlightAware ADS-B
Mon 07:09:11 PM 40.8860 -89.9370 44° Northeast 431 496 29,500 -1,500 Descending FlightAware ADS-B
Mon 07:09:55 PM 40.9480 -89.8580 44° Northeast 426 490 28,300 -1,714 Descending FlightAware ADS-B
Mon 07:10:28 PM 40.9970 -89.7960 44° Northeast 426 490 27,300 -1,239 Descending FlightAware ADS-B
Mon 07:11:27 PM 41.0730 -89.6990 44° Northeast 424 488 26,400 -1,670 Descending FlightAware ADS-B
Mon 07:12:05 PM 41.1320 -89.6230 44° Northeast 415 478 24,600 -2,143 Descending FlightAware ADS-B
Mon 07:12:51 PM 41.1830 -89.5320 53° Northeast 403 464 23,400 -1,624 Descending FlightAware ADS-B
Mon 07:13:30 PM 41.2170 -89.4470 62° Northeast 397 457 22,300 -1,735 Descending FlightAware ADS-B
Mon 07:14:14 PM 41.2560 -89.3510 62° Northeast 394 453 21,000 -1,643 Descending FlightAware ADS-B
Mon 07:14:54 PM 41.2900 -89.2650 62° Northeast 395 455 20,000 -508 Descending FlightAware ADS-B
Mon 07:16:12 PM 41.3480 -89.1200 62° Northeast 341 392 20,000  Level FlightAware ADS-B
Mon 07:16:56 PM 41.3820 -89.0360 62° Northeast 319 367 20,000 -276 Level FlightAware ADS-B
Mon 07:17:39 PM 41.4130 -88.9590 62° Northeast 315 362 19,600 -1,286 Descending FlightAware ADS-B
Mon 07:18:20 PM 41.4410 -88.8880 62° Northeast 307 353 18,200 -2,000 Descending FlightAware ADS-B
Mon 07:19:03 PM 41.4690 -88.8180 62° Northeast 299 344 16,800 -2,096 Descending FlightAware ADS-B
Mon 07:19:43 PM 41.4940 -88.7540 62° Northeast 289 333 15,300 -2,214 Descending FlightAware ADS-B
Mon 07:20:27 PM 41.5170 -88.6840 66° East 275 316 13,700 -1,944 Descending FlightAware ADS-B
Mon 07:20:54 PM 41.5050 -88.6440 112° Southeast 269 310 13,000 -1,543 Descending FlightAware ADS-B
Mon 07:21:02 PM 41.4960 -88.6350 143° Southeast 264 304 12,800 -750 Descending FlightAware ADS-B
Mon 07:21:18 PM 41.4790 -88.6270 161° South 258 297 12,700 -150 Descending FlightAware ADS-B
Mon 07:21:42 PM 41.4540 -88.6340 192° South 260 299 12,700  Level FlightAware ADS-B
Mon 07:21:58 PM 41.4390 -88.6520 222° Southwest 263 303 12,700  Level FlightAware ADS-B
Mon 07:22:38 PM 41.4170 -88.7080 242° Southwest 267 307 12,700  Level FlightAware ADS-B
Mon 07:23:18 PM 41.3920 -88.7720 243° Southwest 268 308 12,700  Level FlightAware ADS-B
Mon 07:23:59 PM 41.3680 -88.8320 242° Southwest 269 310 12,700  Level FlightAware ADS-B
Mon 07:24:26 PM 41.3550 -88.8730 247° West 272 313 12,700  Level FlightAware ADS-B
Mon 07:24:52 PM 41.3630 -88.9120 285° West 281 323 12,700  Level FlightAware ADS-B
Mon 07:25:07 PM 41.3770 -88.9290 318° Northwest 283 326 12,700  Level FlightAware ADS-B
Mon 07:25:19 PM 41.3940 -88.9350 345° North 282 325 12,700  Level FlightAware ADS-B
Mon 07:25:43 PM 41.4250 -88.9290 North 284 327 12,700  Level FlightAware ADS-B
Mon 07:26:23 PM 41.4740 -88.9070 19° North 287 330 12,700  Level FlightAware ADS-B
Mon 07:27:05 PM 41.5240 -88.8680 30° Northeast 286 329 12,700 -254 Level FlightAware ADS-B
Mon 07:27:34 PM 41.5560 -88.8400 33° Northeast 285 328 12,400 -1,457 Descending FlightAware ADS-B
Mon 07:28:15 PM 41.5830 -88.7770 60° Northeast 305 351 11,000 -1,200 Descending FlightAware ADS-B
Mon 07:28:59 PM 41.6040 -88.6990 70° East 308 354 10,700 -214 Descending FlightAware ADS-B
Mon 07:29:39 PM 41.6210 -88.6260 73° East 306 352 10,700 -403 Level FlightAware ADS-B
Mon 07:30:58 PM 41.6480 -88.5090 73° East 303 349 9,900 -897 Descending FlightAware ADS-B
Mon 07:31:26 PM 41.6650 -88.4370 72° East 300 345 9,100 -1,358 Descending FlightAware ADS-B
Mon 07:31:51 PM 41.6750 -88.3960 72° East 295 339 8,700 -1,050 Descending FlightAware ADS-B
Mon 07:32:06 PM 41.6830 -88.3730 65° Northeast 297 342 8,400 -1,200 Descending FlightAware ADS-B
Mon 07:32:21 PM 41.7020 -88.3530 38° Northeast 298 343 8,100 -1,200 Descending FlightAware ADS-B
Mon 07:32:46 PM 41.7340 -88.3390 18° North 296 341 7,600 -1,091 Descending FlightAware ADS-B
Mon 07:33:16 PM 41.7720 -88.3230 17° North 294 338 7,100 -900 Descending FlightAware ADS-B
Mon 07:33:46 PM 41.8130 -88.3080 15° North 291 335 6,700 -400 Descending FlightAware ADS-B
Mon 07:34:16 PM 41.8500 -88.2930 17° North 265 305 6,700 -218 Level FlightAware ADS-B
Mon 07:34:41 PM 41.8790 -88.2890 North 247 284 6,500 -1,200 Descending FlightAware ADS-B
Mon 07:35:11 PM 41.9120 -88.2910 357° North 243 280 5,600 -1,846 Descending FlightAware ADS-B
Mon 07:35:33 PM 41.9380 -88.2920 358° North 241 277 4,900 -1,714 Descending FlightAware ADS-B
Mon 07:36:07 PM 41.9670 -88.2670 33° Northeast 229 264 4,000 -1,435 Descending FlightAware ADS-B
Mon 07:36:19 PM 41.9690 -88.2500 81° East 226 260 3,800 -450 Descending FlightAware ADS-B
Mon 07:36:47 PM 41.9680 -88.2120 92° East 216 249 3,700 -111 Descending FlightAware ADS-B
Mon 07:37:13 PM 41.9680 -88.1770 90° East 216 249 3,700 -429 Level FlightAware ADS-B
Mon 07:37:43 PM 41.9680 -88.1370 90° East 214 246 3,300 -913 Descending FlightAware ADS-B
Mon 07:37:59 PM 41.9680 -88.1160 90° East 212 244 3,000 -1,091 Descending FlightAware ADS-B
Mon 07:38:27 PM 41.9690 -88.0820 88° East 194 223 2,500 -1,071 Descending FlightAware ADS-B
Mon 07:38:55 PM 41.9690 -88.0500 90° East 169 194 2,000 -923 Descending FlightAware ADS-B
Mon 07:39:19 PM 41.9690 -88.0260 90° East 155 178 1,700 -714 Descending FlightAware ADS-B
Mon 07:39:37 PM 41.9690 -88.0110 90° East 145 167 1,500 -652 Descending FlightAware ADS-B
Mon 07:40:05 PM 41.9690 -87.9860 90° East 133 153 1,200 -724 Descending FlightAware ADS-B
Mon 07:40:35 PM 41.9690 -87.9620 90° East 135 155 800 -676 Descending FlightAware ADS-B
Mon 07:41:16 PM 41.9690 -87.9270 90° East 137 158 400 -364 Descending FlightAware ADS-B
Mon 07:41:41 PM 41.9690 -87.9090 90° East 137 158 400  Level FlightAware ADS-B
Mon 07:46:30 PM 41.9780 -87.9140 338° Northwest 28 32 -83 Descending FlightAware ADS-B
Mon 07:47:02 PM 41.9790 -87.9160 304° West 16 18  Level FlightAware ADS-B
Mon 07:47:30 PM 41.9800 -87.9180 304° West 15 17  Level FlightAware ADS-B
Mon 07:47:46 PM 41.9810 -87.9180 360° North 31 36  Level FlightAware ADS-B
Mon 07:47:58 PM 41.9820 -87.9190 323° Northwest 29 33  Level FlightAware ADS-B
Mon 07:48:08 PM 41.9820 -87.9200 270° West 30 35  Level FlightAware ADS-B
Mon 07:48:41 PM 41.9800 -87.9190 160° South 17 20  Level FlightAware ADS-B

Login

Don't have an account? Register now (free) for customized features, flight alerts, and more!